createdAt,value
2022-10-19T00:02:00.083Z,99709.94
2022-10-19T00:04:26.222Z,99710.69
2022-10-19T00:06:52.354Z,99721.09
2022-10-19T00:09:18.452Z,99716.34
2022-10-19T00:11:44.562Z,99713.81
2022-10-19T00:14:10.659Z,99709.59
2022-10-19T00:16:36.756Z,99706.31
2022-10-19T00:19:02.866Z,99703.06
2022-10-19T00:21:28.956Z,99701.78
2022-10-19T00:23:55.051Z,99696.38
2022-10-19T00:26:21.186Z,99706.22
2022-10-19T00:28:47.369Z,99697.59
2022-10-19T00:31:13.512Z,99702.53
2022-10-19T00:33:39.635Z,99690.19
2022-10-19T00:36:05.734Z,99690.88
2022-10-19T00:38:31.821Z,99693.28
2022-10-19T00:40:57.953Z,99690.38
2022-10-19T00:43:24.052Z,99686.59
2022-10-19T00:45:50.163Z,99704.84
2022-10-19T00:48:16.277Z,99693.13
2022-10-19T00:50:42.367Z,99696.56
2022-10-19T00:53:08.459Z,99695.75
2022-10-19T00:55:34.613Z,99688.75
2022-10-19T00:58:00.713Z,99680.56
2022-10-19T01:00:26.820Z,99683.91
2022-10-19T01:02:52.946Z,99692.22
2022-10-19T01:05:19.045Z,99691.66
2022-10-19T01:07:45.140Z,99686.06
2022-10-19T01:10:11.251Z,99686.91
2022-10-19T01:12:37.355Z,99691.47
2022-10-19T01:15:03.464Z,99691.00
2022-10-19T01:17:29.607Z,99688.56
2022-10-19T01:19:55.712Z,99686.44
2022-10-19T01:22:21.844Z,99688.72
2022-10-19T01:24:47.982Z,99677.22
2022-10-19T01:27:14.105Z,99686.31
2022-10-19T01:29:40.193Z,99687.16
2022-10-19T01:32:06.327Z,99688.81
2022-10-19T01:34:32.422Z,99690.25
2022-10-19T01:36:58.527Z,99681.88
2022-10-19T01:39:24.656Z,99685.25
2022-10-19T01:41:50.773Z,99686.31
2022-10-19T01:44:16.873Z,99686.19
2022-10-19T01:46:43.004Z,99677.94
2022-10-19T01:49:15.293Z,99669.41
2022-10-19T01:51:41.511Z,99667.13
2022-10-19T01:54:07.644Z,99660.53
2022-10-19T01:56:33.728Z,99658.16
2022-10-19T01:58:59.833Z,99659.81
2022-10-19T02:01:25.941Z,99657.31
2022-10-19T02:03:52.025Z,99649.75
2022-10-19T02:06:18.122Z,99644.84
2022-10-19T02:08:44.216Z,99644.50
2022-10-19T02:11:10.309Z,99650.59
2022-10-19T02:13:36.428Z,99644.69
2022-10-19T02:16:02.605Z,99641.47
2022-10-19T02:18:28.688Z,99639.44
2022-10-19T02:20:54.782Z,99633.00
2022-10-19T02:23:20.891Z,99639.22
2022-10-19T02:25:46.982Z,99634.13
2022-10-19T02:28:13.110Z,99642.06
2022-10-19T02:30:39.263Z,99641.59
2022-10-19T02:33:05.362Z,99637.25
2022-10-19T02:35:31.473Z,99654.53
2022-10-19T02:37:57.576Z,99660.16
2022-10-19T02:40:23.662Z,99653.72
2022-10-19T02:42:49.748Z,99650.34
2022-10-19T02:45:15.858Z,99655.09
2022-10-19T02:47:41.958Z,99647.75
2022-10-19T02:50:08.074Z,99650.84
2022-10-19T02:52:34.339Z,99646.41
2022-10-19T02:55:00.437Z,99636.34
2022-10-19T02:57:26.525Z,99647.03
2022-10-19T02:59:52.653Z,99635.66
2022-10-19T03:02:18.736Z,99641.19
2022-10-19T03:04:44.893Z,99642.97
2022-10-19T03:07:11.028Z,99635.91
2022-10-19T03:09:37.132Z,99631.94
2022-10-19T03:12:03.321Z,99638.63
2022-10-19T03:14:29.447Z,99630.91
2022-10-19T03:16:55.535Z,99635.22
2022-10-19T03:19:21.624Z,99634.69
2022-10-19T03:21:47.740Z,99634.22
2022-10-19T03:24:13.833Z,99635.06
2022-10-19T03:26:39.922Z,99633.50
2022-10-19T03:29:06.030Z,99632.13
2022-10-19T03:31:32.118Z,99630.91
2022-10-19T03:33:58.220Z,99630.09
2022-10-19T03:36:24.332Z,99632.94
2022-10-19T03:38:50.415Z,99638.00
2022-10-19T03:41:16.518Z,99634.66
2022-10-19T03:43:42.620Z,99638.59
2022-10-19T03:46:08.738Z,99640.25
2022-10-19T03:48:34.842Z,99630.34
2022-10-19T03:51:01.306Z,99642.06
2022-10-19T03:53:27.399Z,99639.91
2022-10-19T03:55:53.486Z,99642.78
2022-10-19T03:58:19.598Z,99635.97
2022-10-19T04:00:45.789Z,99646.06
2022-10-19T04:03:11.900Z,99639.44
2022-10-19T04:05:37.997Z,99643.16
2022-10-19T04:08:04.093Z,99647.34
2022-10-19T04:10:30.183Z,99640.66
2022-10-19T04:12:56.297Z,99646.41
2022-10-19T04:15:22.398Z,99643.63
2022-10-19T04:17:48.736Z,99644.22
2022-10-19T04:22:53.424Z,99643.41
2022-10-19T04:25:19.534Z,99640.16
2022-10-19T04:27:45.632Z,99644.59
2022-10-19T04:30:11.720Z,99646.75
2022-10-19T04:32:37.840Z,99646.28
2022-10-19T04:35:03.924Z,99649.53
2022-10-19T04:37:30.024Z,99644.38
2022-10-19T04:39:56.126Z,99650.56
2022-10-19T04:42:22.225Z,99648.31
2022-10-19T04:44:48.320Z,99648.81
2022-10-19T04:47:14.461Z,99634.06
2022-10-19T04:49:40.591Z,99642.09
2022-10-19T04:52:06.688Z,99639.94
2022-10-19T04:54:33.359Z,99638.97
2022-10-19T04:56:59.456Z,99636.22
2022-10-19T04:59:25.561Z,99639.06
2022-10-19T05:01:51.972Z,99634.19
2022-10-19T05:04:18.056Z,99627.47
2022-10-19T05:06:44.149Z,99627.56
2022-10-19T05:09:10.276Z,99631.56
2022-10-19T05:11:36.393Z,99634.41
2022-10-19T05:14:02.486Z,99628.91
2022-10-19T05:16:28.581Z,99635.38
2022-10-19T05:18:54.675Z,99627.72
2022-10-19T05:21:20.773Z,99626.97
2022-10-19T05:23:46.888Z,99617.03
2022-10-19T05:26:12.979Z,99612.59
2022-10-19T05:28:39.214Z,99615.94
2022-10-19T05:31:05.354Z,99603.22
2022-10-19T05:33:31.444Z,99601.34
2022-10-19T05:35:57.675Z,99604.94
2022-10-19T05:38:23.829Z,99597.38
2022-10-19T05:40:52.963Z,99601.22
2022-10-19T05:43:19.850Z,99597.00
2022-10-19T05:45:45.962Z,99593.78
2022-10-19T05:48:12.071Z,99589.94
2022-10-19T05:50:38.178Z,99595.56
2022-10-19T05:53:04.308Z,99595.81
2022-10-19T05:55:30.408Z,99585.41
2022-10-19T05:57:56.537Z,99596.06
2022-10-19T06:00:22.653Z,99587.66
2022-10-19T06:02:48.750Z,99585.66
2022-10-19T06:05:14.851Z,99596.91
2022-10-19T06:07:40.969Z,99597.25
2022-10-19T06:10:07.059Z,99607.22
2022-10-19T06:12:33.161Z,99606.84
2022-10-19T06:14:59.282Z,99611.06
2022-10-19T06:17:25.393Z,99607.91
2022-10-19T06:19:51.494Z,99612.84
2022-10-19T06:22:17.607Z,99618.06
2022-10-19T06:24:43.695Z,99617.56
2022-10-19T06:27:09.856Z,99620.72
2022-10-19T06:29:36.002Z,99622.66
2022-10-19T06:32:02.100Z,99622.91
2022-10-19T06:34:28.285Z,99624.09
2022-10-19T06:36:54.514Z,99625.63
2022-10-19T06:39:20.639Z,99627.69
2022-10-19T06:41:46.733Z,99619.16
2022-10-19T06:44:12.840Z,99630.31
2022-10-19T06:46:38.939Z,99629.81
2022-10-19T06:49:05.039Z,99618.94
2022-10-19T06:51:31.163Z,99616.69
2022-10-19T06:53:57.635Z,99619.53
2022-10-19T06:56:23.853Z,99625.78
2022-10-19T06:58:50.290Z,99617.88
2022-10-19T07:01:16.492Z,99608.78
2022-10-19T07:03:42.603Z,99618.25
2022-10-19T07:06:08.789Z,99619.56
2022-10-19T07:08:34.889Z,99624.47
2022-10-19T07:11:00.986Z,99628.31
2022-10-19T07:13:27.102Z,99628.53
2022-10-19T07:15:53.220Z,99626.03
2022-10-19T07:18:19.330Z,99630.13
2022-10-19T07:20:45.450Z,99619.91
2022-10-19T07:23:11.562Z,99620.16
2022-10-19T07:25:37.651Z,99623.50
2022-10-19T07:28:03.758Z,99625.53
2022-10-19T07:30:29.878Z,99622.53
2022-10-19T07:32:55.974Z,99622.91
2022-10-19T07:35:22.103Z,99630.09
2022-10-19T07:37:48.190Z,99623.13
2022-10-19T07:40:14.295Z,99625.50
2022-10-19T07:42:40.436Z,99623.69
2022-10-19T07:45:06.550Z,99622.09
2022-10-19T07:47:32.934Z,99612.47
2022-10-19T07:49:59.309Z,99615.84
2022-10-19T07:52:25.450Z,99607.44
2022-10-19T07:54:51.574Z,99598.78
2022-10-19T07:57:17.689Z,99610.25
2022-10-19T07:59:43.790Z,99611.63
2022-10-19T08:02:09.929Z,99607.31
2022-10-19T08:07:23.201Z,99612.91
2022-10-19T08:09:53.826Z,99626.59
2022-10-19T08:12:20.483Z,99627.44
2022-10-19T08:14:46.594Z,99629.59
2022-10-19T08:17:12.717Z,99629.59
2022-10-19T08:19:38.843Z,99634.13
2022-10-19T08:22:04.935Z,99622.31
2022-10-19T08:24:31.046Z,99621.78
2022-10-19T08:26:57.143Z,99632.53
2022-10-19T08:29:24.593Z,99619.16
2022-10-19T08:31:52.725Z,99624.25
2022-10-19T08:34:18.812Z,99628.44
2022-10-19T08:36:44.918Z,99622.09
2022-10-19T08:39:11.044Z,99626.00
2022-10-19T08:41:37.183Z,99625.19
2022-10-19T08:44:06.243Z,99623.41
2022-10-19T08:46:35.297Z,99624.81
2022-10-19T08:49:01.389Z,99625.81
2022-10-19T08:51:27.547Z,99629.72
2022-10-19T08:53:53.729Z,99633.22
2022-10-19T08:56:39.038Z,99626.25
2022-10-19T08:59:05.937Z,99625.28
2022-10-19T09:01:33.926Z,99631.72
2022-10-19T09:04:02.978Z,99633.25
2022-10-19T09:06:29.090Z,99630.34
2022-10-19T09:08:55.224Z,99622.66
2022-10-19T09:11:21.345Z,99624.47
2022-10-19T09:14:05.991Z,99616.91
2022-10-19T09:16:32.435Z,99608.28
2022-10-19T09:18:58.560Z,99604.22
2022-10-19T09:21:31.008Z,99602.00
2022-10-19T09:24:04.052Z,99592.78
2022-10-19T09:26:30.147Z,99596.38
2022-10-19T09:28:56.259Z,99595.94
2022-10-19T09:31:22.382Z,99590.06
2022-10-19T09:33:48.480Z,99585.47
2022-10-19T09:36:22.548Z,99584.47
2022-10-19T09:38:53.754Z,99591.00
2022-10-19T09:41:19.852Z,99582.91
2022-10-19T09:43:45.977Z,99592.94
2022-10-19T09:46:19.795Z,99584.78
2022-10-19T09:48:46.301Z,99577.38
2022-10-19T09:51:12.409Z,99583.81
2022-10-19T09:53:38.525Z,99589.22
2022-10-19T09:56:04.793Z,99587.53
2022-10-19T09:58:33.107Z,99582.22
2022-10-19T10:00:59.670Z,99581.47
2022-10-19T10:03:25.774Z,99576.41
2022-10-19T10:05:51.869Z,99569.50
2022-10-19T10:08:17.978Z,99573.31
2022-10-19T10:10:44.065Z,99573.81
2022-10-19T10:13:10.208Z,99563.16
2022-10-19T10:15:36.349Z,99562.56
2022-10-19T10:18:02.438Z,99558.59
2022-10-19T10:20:28.544Z,99561.00
2022-10-19T10:22:54.656Z,99560.75
2022-10-19T10:25:20.852Z,99562.28
2022-10-19T10:27:46.973Z,99559.72
2022-10-19T10:30:13.073Z,99558.72
2022-10-19T10:32:39.177Z,99554.22
2022-10-19T10:35:05.263Z,99560.91
2022-10-19T10:37:31.661Z,99560.13
2022-10-19T10:40:00.521Z,99550.75
2022-10-19T10:42:29.869Z,99553.44
2022-10-19T10:44:55.972Z,99549.19
2022-10-19T10:47:22.070Z,99550.91
2022-10-19T10:49:48.157Z,99551.59
2022-10-19T10:52:14.294Z,99536.63
2022-10-19T10:54:40.398Z,99536.69
2022-10-19T10:57:06.920Z,99530.72
2022-10-19T10:59:33.210Z,99531.06
2022-10-19T11:01:59.376Z,99513.25
2022-10-19T11:04:25.516Z,99513.47
2022-10-19T11:06:51.693Z,99516.50
2022-10-19T11:09:17.775Z,99509.53
2022-10-19T11:11:43.872Z,99505.59
2022-10-19T11:14:10.032Z,99504.78
2022-10-19T11:16:36.128Z,99499.13
2022-10-19T11:19:02.270Z,99503.66
2022-10-19T11:21:28.689Z,99501.53
2022-10-19T11:23:54.794Z,99494.75
2022-10-19T11:26:20.881Z,99485.91
2022-10-19T11:28:47.002Z,99493.97
2022-10-19T11:31:13.105Z,99479.50
2022-10-19T11:33:39.240Z,99482.16
2022-10-19T11:36:05.379Z,99478.16
2022-10-19T11:38:31.549Z,99481.34
2022-10-19T11:41:16.974Z,99474.38
2022-10-19T11:43:43.766Z,99476.53
2022-10-19T11:46:09.871Z,99464.22
2022-10-19T11:48:37.695Z,99463.56
2022-10-19T11:51:20.587Z,99461.59
2022-10-19T11:53:47.625Z,99461.56
2022-10-19T11:56:13.732Z,99459.28
2022-10-19T11:58:39.840Z,99460.09
2022-10-19T12:01:05.939Z,99451.09
2022-10-19T12:03:32.050Z,99448.09
2022-10-19T12:05:58.128Z,99435.28
2022-10-19T12:08:24.261Z,99435.63
2022-10-19T12:10:50.534Z,99426.78
2022-10-19T12:13:16.654Z,99434.09
2022-10-19T12:15:42.743Z,99429.28
2022-10-19T12:18:08.838Z,99420.28
2022-10-19T12:20:34.937Z,99420.28
2022-10-19T12:23:01.039Z,99418.63
2022-10-19T12:25:27.143Z,99427.09
2022-10-19T12:27:53.237Z,99420.97
2022-10-19T12:30:19.328Z,99426.28
2022-10-19T12:32:45.441Z,99420.75
2022-10-19T12:35:11.572Z,99414.41
2022-10-19T12:37:37.937Z,99402.25
2022-10-19T12:40:04.085Z,99404.91
2022-10-19T12:42:30.168Z,99399.22
2022-10-19T12:44:58.630Z,99403.69
2022-10-19T12:47:25.075Z,99391.84
2022-10-19T12:49:51.208Z,99386.53
2022-10-19T12:52:17.301Z,99379.16
2022-10-19T12:54:43.413Z,99382.50
2022-10-19T12:57:09.501Z,99378.81
2022-10-19T12:59:35.669Z,99377.53
2022-10-19T13:02:01.785Z,99373.47
2022-10-19T13:04:27.922Z,99380.78
2022-10-19T13:06:54.017Z,99371.78
2022-10-19T13:09:20.173Z,99368.59
2022-10-19T13:11:46.276Z,99365.91
2022-10-19T13:14:12.379Z,99359.75
2022-10-19T13:16:38.489Z,99357.09
2022-10-19T13:19:04.730Z,99352.41
2022-10-19T13:21:30.870Z,99348.38
2022-10-19T13:23:56.979Z,99350.34
2022-10-19T13:26:23.095Z,99349.50
2022-10-19T13:28:49.210Z,99337.66
2022-10-19T13:31:15.828Z,99335.00
2022-10-19T13:33:41.932Z,99325.97
2022-10-19T13:36:08.058Z,99313.94
2022-10-19T13:38:34.180Z,99308.88
2022-10-19T13:41:00.281Z,99315.19
2022-10-19T13:43:26.420Z,99308.66
2022-10-19T13:45:52.569Z,99315.47
2022-10-19T13:48:18.663Z,99300.09
2022-10-19T13:50:44.762Z,99299.66
2022-10-19T13:53:10.897Z,99306.47
2022-10-19T13:55:36.988Z,99304.78
2022-10-19T13:58:03.073Z,99294.31
2022-10-19T14:00:29.250Z,99301.78
2022-10-19T14:02:55.346Z,99304.63
2022-10-19T14:05:21.440Z,99295.13
2022-10-19T14:07:47.545Z,99288.44
2022-10-19T14:10:13.642Z,99295.06
2022-10-19T14:12:39.736Z,99288.06
2022-10-19T14:15:05.846Z,99283.69
2022-10-19T14:17:33.886Z,99289.72
2022-10-19T14:20:00.556Z,99289.00
2022-10-19T14:22:26.672Z,99286.50
2022-10-19T14:24:52.790Z,99288.00
2022-10-19T14:27:18.889Z,99287.81
2022-10-19T14:29:45.007Z,99280.81
2022-10-19T14:32:11.216Z,99281.94
2022-10-19T14:34:37.316Z,99268.31
2022-10-19T14:37:03.455Z,99279.00
2022-10-19T14:39:29.571Z,99282.84
2022-10-19T14:41:55.680Z,99279.28
2022-10-19T14:44:21.807Z,99275.78
2022-10-19T14:46:47.898Z,99280.75
2022-10-19T14:49:13.975Z,99268.50
2022-10-19T14:51:40.081Z,99268.50
2022-10-19T14:54:06.189Z,99266.50
2022-10-19T14:56:32.293Z,99261.16
2022-10-19T14:58:58.411Z,99249.53
2022-10-19T15:01:24.516Z,99263.00
2022-10-19T15:03:50.668Z,99251.38
2022-10-19T15:06:16.772Z,99250.19
2022-10-19T15:08:42.958Z,99251.94
2022-10-19T15:11:09.162Z,99239.50
2022-10-19T15:13:35.264Z,99241.88
2022-10-19T15:16:01.388Z,99240.28
2022-10-19T15:21:13.583Z,99231.63
2022-10-19T15:23:39.678Z,99231.34
2022-10-19T15:26:09.683Z,99225.06
2022-10-19T15:28:42.523Z,99232.22
2022-10-19T15:31:08.609Z,99234.88
2022-10-19T15:33:34.742Z,99226.25
2022-10-19T15:38:27.935Z,99218.28
2022-10-19T15:40:54.098Z,99224.84
2022-10-19T15:43:20.198Z,99222.72
2022-10-19T15:45:46.289Z,99217.22
2022-10-19T15:48:12.372Z,99216.97
2022-10-19T15:50:38.526Z,99213.47
2022-10-19T15:53:04.630Z,99215.03
2022-10-19T15:55:30.756Z,99206.41
2022-10-19T15:57:56.878Z,99209.06
2022-10-19T16:00:22.980Z,99209.13
2022-10-19T16:02:49.103Z,99201.00
2022-10-19T16:05:15.210Z,99203.22
2022-10-19T16:07:41.292Z,99200.13
2022-10-19T16:10:07.421Z,99198.66
2022-10-19T16:12:33.540Z,99199.59
2022-10-19T16:14:59.689Z,99202.47
2022-10-19T16:17:25.786Z,99201.50
2022-10-19T16:19:52.311Z,99199.72
2022-10-19T16:22:18.403Z,99197.56
2022-10-19T16:24:44.516Z,99193.56
2022-10-19T16:27:10.640Z,99194.28
2022-10-19T16:29:36.720Z,99195.78
2022-10-19T16:32:02.825Z,99195.47
2022-10-19T16:34:29.021Z,99186.69
2022-10-19T16:36:55.159Z,99185.34
2022-10-19T16:39:21.261Z,99181.84
2022-10-19T16:41:47.897Z,99177.03
2022-10-19T16:44:13.983Z,99174.53
2022-10-19T16:46:40.083Z,99170.72
2022-10-19T16:49:06.243Z,99169.72
2022-10-19T16:51:32.584Z,99165.72
2022-10-19T16:53:58.661Z,99169.56
2022-10-19T16:56:24.768Z,99164.53
2022-10-19T16:58:50.866Z,99148.06
2022-10-19T17:01:17.003Z,99152.72
2022-10-19T17:03:43.164Z,99153.72
2022-10-19T17:06:09.291Z,99141.06
2022-10-19T17:08:37.230Z,99148.31
2022-10-19T17:11:10.486Z,99140.06
2022-10-19T17:13:36.578Z,99136.38
2022-10-19T17:16:02.680Z,99133.72
2022-10-19T17:18:28.793Z,99129.50
2022-10-19T17:20:55.627Z,99131.47
2022-10-19T17:23:21.816Z,99132.63
2022-10-19T17:25:47.927Z,99127.31
2022-10-19T17:28:14.022Z,99121.31
2022-10-19T17:30:40.119Z,99127.28
2022-10-19T17:33:06.255Z,99126.41
2022-10-19T17:35:32.358Z,99121.72
2022-10-19T17:37:58.450Z,99129.44
2022-10-19T17:40:24.603Z,99126.59
2022-10-19T17:42:50.686Z,99127.47
2022-10-19T17:45:16.801Z,99127.44
2022-10-19T17:47:42.929Z,99120.94
2022-10-19T17:50:09.034Z,99116.41
2022-10-19T17:52:35.154Z,99123.41
2022-10-19T17:55:11.574Z,99130.81
2022-10-19T17:57:38.493Z,99131.59
2022-10-19T18:00:04.599Z,99131.81
2022-10-19T18:02:30.800Z,99133.63
2022-10-19T18:04:56.937Z,99130.94
2022-10-19T18:07:23.050Z,99133.56
2022-10-19T18:09:49.140Z,99134.19
2022-10-19T18:12:15.243Z,99135.66
2022-10-19T18:14:41.360Z,99129.53
2022-10-19T18:17:07.466Z,99119.34
2022-10-19T18:19:33.569Z,99118.78
2022-10-19T18:22:01.132Z,99114.78
2022-10-19T18:24:27.272Z,99125.84
2022-10-19T18:26:53.417Z,99121.84
2022-10-19T18:29:19.543Z,99121.38
2022-10-19T18:31:45.632Z,99127.44
2022-10-19T18:34:11.734Z,99127.91
2022-10-19T18:36:37.847Z,99119.19
2022-10-19T18:39:03.932Z,99123.00
2022-10-19T18:41:30.033Z,99121.16
2022-10-19T18:43:56.154Z,99122.63
2022-10-19T18:46:22.246Z,99120.34
2022-10-19T18:48:48.342Z,99112.03
2022-10-19T18:51:14.900Z,99109.50
2022-10-19T18:53:40.986Z,99095.56
2022-10-19T18:56:07.091Z,99103.00
2022-10-19T18:58:33.197Z,99095.59
2022-10-19T19:00:59.325Z,99096.44
2022-10-19T19:03:25.417Z,99090.19
2022-10-19T19:05:51.546Z,99089.59
2022-10-19T19:08:17.672Z,99096.56
2022-10-19T19:10:43.763Z,99087.16
2022-10-19T19:13:09.874Z,99088.16
2022-10-19T19:15:35.972Z,99091.53
2022-10-19T19:18:02.081Z,99079.28
2022-10-19T19:20:28.170Z,99072.03
2022-10-19T19:22:54.273Z,99073.00
2022-10-19T19:25:20.368Z,99062.03
2022-10-19T19:27:46.480Z,99055.84
2022-10-19T19:30:12.573Z,99058.94
2022-10-19T19:32:38.682Z,99055.22
2022-10-19T19:35:04.832Z,99057.63
2022-10-19T19:37:30.936Z,99055.44
2022-10-19T19:39:57.043Z,99056.66
2022-10-19T19:42:27.666Z,99058.91
2022-10-19T19:44:54.002Z,99050.50
2022-10-19T19:47:20.113Z,99046.50
2022-10-19T19:49:46.245Z,99046.25
2022-10-19T19:52:12.377Z,99031.88
2022-10-19T19:54:38.470Z,99035.13
2022-10-19T19:57:04.576Z,99022.28
2022-10-19T19:59:30.680Z,99021.09
2022-10-19T20:01:56.850Z,99026.00
2022-10-19T20:04:22.970Z,99021.81
2022-10-19T20:06:49.082Z,99025.00
2022-10-19T20:09:15.189Z,99014.41
2022-10-19T20:11:42.701Z,99015.41
2022-10-19T20:14:09.112Z,99012.06
2022-10-19T20:16:35.210Z,99004.91
2022-10-19T20:19:01.335Z,99009.06
2022-10-19T20:21:27.429Z,99001.13
2022-10-19T20:23:53.527Z,99006.41
2022-10-19T20:26:19.648Z,99005.53
2022-10-19T20:28:45.757Z,99005.16
2022-10-19T20:31:11.851Z,99007.97
2022-10-19T20:33:37.959Z,99005.50
2022-10-19T20:36:04.081Z,99002.13
2022-10-19T20:38:30.178Z,99000.13
2022-10-19T20:40:56.287Z,98997.34
2022-10-19T20:43:22.372Z,98997.41
2022-10-19T20:45:48.452Z,98989.91
2022-10-19T20:48:14.590Z,98989.69
2022-10-19T20:50:40.696Z,98980.72
2022-10-19T20:53:06.790Z,98974.97
2022-10-19T20:55:33.378Z,98970.00
2022-10-19T20:57:59.457Z,98977.19
2022-10-19T21:00:25.531Z,98959.66
2022-10-19T21:02:51.649Z,98962.06
2022-10-19T21:05:17.752Z,98962.75
2022-10-19T21:07:43.843Z,98957.38
2022-10-19T21:10:09.949Z,98949.66
2022-10-19T21:12:36.400Z,98949.44
2022-10-19T21:15:02.788Z,98954.88
2022-10-19T21:17:28.901Z,98956.97
2022-10-19T21:19:57.275Z,98953.13
2022-10-19T21:22:23.588Z,98951.44
2022-10-19T21:24:50.322Z,98954.19
2022-10-19T21:27:16.409Z,98953.56
2022-10-19T21:29:42.487Z,98947.44
2022-10-19T21:32:08.610Z,98949.94
2022-10-19T21:34:34.700Z,98955.00
2022-10-19T21:37:00.784Z,98947.97
2022-10-19T21:39:26.898Z,98952.59
2022-10-19T21:41:52.989Z,98948.56
2022-10-19T21:44:19.067Z,98942.78
2022-10-19T21:46:45.186Z,98931.88
2022-10-19T21:49:11.286Z,98928.50
2022-10-19T21:51:37.365Z,98921.19
2022-10-19T21:54:03.553Z,98912.09
2022-10-19T21:56:29.724Z,98915.66
2022-10-19T21:58:55.823Z,98919.72
2022-10-19T22:01:22.086Z,98909.34
2022-10-19T22:03:48.228Z,98903.53
2022-10-19T22:06:14.337Z,98897.56
2022-10-19T22:08:40.695Z,98894.06
2022-10-19T22:11:06.797Z,98896.09
2022-10-19T22:13:32.901Z,98889.06
2022-10-19T22:15:59.022Z,98881.94
2022-10-19T22:18:25.103Z,98876.63
2022-10-19T22:20:51.194Z,98869.44
2022-10-19T22:23:17.314Z,98858.88
2022-10-19T22:25:43.422Z,98849.94
2022-10-19T22:28:09.506Z,98859.03
2022-10-19T22:30:35.617Z,98846.94
2022-10-19T22:33:01.708Z,98857.09
2022-10-19T22:35:27.803Z,98850.28
2022-10-19T22:37:53.896Z,98846.28
2022-10-19T22:40:19.988Z,98846.81
2022-10-19T22:42:46.078Z,98854.97
2022-10-19T22:45:12.210Z,98851.13
2022-10-19T22:47:38.320Z,98849.97
2022-10-19T22:50:04.404Z,98856.59
2022-10-19T22:52:30.509Z,98854.28
2022-10-19T22:54:56.609Z,98851.66
2022-10-19T22:57:22.693Z,98847.31
2022-10-19T22:59:48.797Z,98831.13
2022-10-19T23:02:14.885Z,98823.81
2022-10-19T23:04:40.970Z,98824.34
2022-10-19T23:07:07.173Z,98822.50
2022-10-19T23:09:33.332Z,98825.84
2022-10-19T23:11:59.429Z,98828.50
2022-10-19T23:14:25.542Z,98818.22
2022-10-19T23:16:51.638Z,98818.22
2022-10-19T23:19:17.731Z,98814.56
2022-10-19T23:21:43.842Z,98819.03
2022-10-19T23:24:09.926Z,98816.06
2022-10-19T23:26:36.015Z,98818.22
2022-10-19T23:29:02.127Z,98820.53
2022-10-19T23:31:28.210Z,98812.94
2022-10-19T23:33:54.298Z,98812.09
2022-10-19T23:36:20.414Z,98802.47
2022-10-19T23:38:46.501Z,98801.47
2022-10-19T23:41:12.597Z,98786.91
2022-10-19T23:43:38.707Z,98796.53
2022-10-19T23:46:04.808Z,98782.44
2022-10-19T23:48:30.901Z,98777.66
2022-10-19T23:50:56.999Z,98767.88
2022-10-19T23:53:23.109Z,98771.53
2022-10-19T23:55:49.212Z,98762.25
2022-10-19T23:58:15.336Z,98766.22
